Time;durP1;ratioP1;P1;durP2;ratioP2;P2;SDS_P1;SDS_P2;PMS_P1;PMS_P2;Temp;Humidity;BMP_temperature;BMP_pressure;BME280_temperature;BME280_humidity;BME280_pressure;Samples;Min_cycle;Max_cycle;Signal;HPM_P1;HPM_P2
2022/08/09 00:00:31;;;;;;;;;;;;;;;;;;5096331;28;19982;-79
2022/08/09 00:02:58;;;;;;;;;;;;;;;;;;5097011;28;19928;-79
2022/08/09 00:05:24;;;;;;;;;;;;;;;;;;5092751;28;19964;-80
2022/08/09 00:07:52;;;;;;;;;;;;;;;;;;5085404;28;20007;-80
2022/08/09 00:10:18;;;;;;;;;;;;;;;;;;5077724;28;20070;-79
2022/08/09 00:12:45;;;;;;;;;;;;;;;;;;5090662;28;19924;-79
2022/08/09 00:15:12;;;;;;;;;;;;;;;;;;5080492;28;19967;-80
2022/08/09 00:17:38;;;;;;;;;;;;;;;;;;5078490;28;19935;-81
2022/08/09 00:20:05;;;;;;;;;;;;;;;;;;5076541;28;19972;-79
2022/08/09 00:22:32;;;;;;;;;;;;;;;;;;5081928;28;19947;-80
2022/08/09 00:25:00;;;;;;;;;;;;;;;;;;5084787;28;19928;-80
2022/08/09 00:27:26;;;;;;;;;;;;;;;;;;5096377;28;20015;-79
2022/08/09 00:29:52;;;;;;;;;;;;;;;;;;5095569;28;19970;-80
2022/08/09 00:32:20;;;;;;;;;;;;;;;;;;5080199;28;20330;-81
2022/08/09 00:34:47;;;;;;;;;;;;;;;;;;5085483;28;20341;-80
2022/08/09 00:37:13;;;;;;;;;;;;;;;;;;5087884;28;19971;-80
2022/08/09 00:39:40;;;;;;;;;;;;;;;;;;5096204;28;19924;-81
2022/08/09 00:42:08;;;;;;;;;;;;;;;;;;5095117;28;20483;-79
2022/08/09 00:44:34;;;;;;;;;;;;;;;;;;5097879;28;19928;-80
2022/08/09 00:47:01;;;;;;;;;;;;;;;;;;5096770;28;19974;-80
2022/08/09 00:49:27;;;;;;;;;;;;;;;;;;5096447;28;19924;-79
2022/08/09 00:51:55;;;;;;;;;;;;;;;;;;5097154;28;19971;-81
2022/08/09 00:54:22;;;;;;;;;;;;;;;;;;5097693;28;20023;-80
2022/08/09 00:56:48;;;;;;;;;;;;;;;;;;5094271;28;20355;-80
2022/08/09 00:59:16;;;;;;;;;;;;;;;;;;5101075;28;19959;-80
2022/08/09 01:01:43;;;;;;;;;;;;;;;;;;5097966;28;20387;-80
2022/08/09 01:04:15;;;;;;;;;;;;;;;;;;5100846;28;19931;-79
2022/08/09 01:06:45;;;;;;;;;;;;;;;;;;5096934;28;19983;-80
2022/08/09 01:09:13;;;;;;;;;;;;;;;;;;5079775;28;19925;-81
2022/08/09 01:11:46;;;;;;;;;;;;;;;;;;5089480;28;20662;-80
2022/08/09 01:14:17;;;;;;;;;;;;;;;;;;5099570;28;19940;-80
2022/08/09 01:16:45;;;;;;;;;;;;;;;;;;5106799;28;19924;-79
2022/08/09 01:19:19;;;;;;;;;;;;;;;;;;5118999;28;19915;-78
2022/08/09 01:21:47;;;;;;;;;;;;;;;;;;5118340;28;19924;-81
2022/08/09 01:24:16;;;;;;;;;;;;;;;;;;5102172;28;19924;-80
2022/08/09 01:26:54;;;;;;;;;;;;;;;;;;5098175;28;19924;-79
2022/08/09 01:29:25;;;;;;;;;;;;;;;;;;5100428;28;19924;-79
2022/08/09 01:31:53;;;;;;;;;;;;;;;;;;5084227;28;20011;-81
2022/08/09 01:34:21;;;;;;;;;;;;;;;;;;5102338;28;19932;-81
2022/08/09 01:36:48;;;;;;;;;;;;;;;;;;5103551;28;19959;-80
2022/08/09 01:39:16;;;;;;;;;;;;;;;;;;5094379;28;19971;-80
2022/08/09 01:41:43;;;;;;;;;;;;;;;;;;5085491;28;19924;-81
2022/08/09 01:44:13;;;;;;;;;;;;;;;;;;5103603;28;19964;-80
2022/08/09 01:46:41;;;;;;;;;;;;;;;;;;5105882;28;19935;-80
2022/08/09 01:49:10;;;;;;;;;;;;;;;;;;5103838;28;20011;-80
2022/08/09 01:51:37;;;;;;;;;;;;;;;;;;5105985;28;19924;-80
2022/08/09 01:54:05;;;;;;;;;;;;;;;;;;5107311;28;19970;-80
2022/08/09 01:56:33;;;;;;;;;;;;;;;;;;5105763;28;20355;-80
2022/08/09 01:59:01;;;;;;;;;;;;;;;;;;5106415;28;19935;-78
2022/08/09 02:01:30;;;;;;;;;;;;;;;;;;5103711;28;19924;-80
2022/08/09 02:03:56;;;;;;;;;;;;;;;;;;5107137;28;19924;-80
2022/08/09 02:09:04;;;;;;;;;;;;;;;;;;5104711;28;19978;-80
2022/08/09 02:11:30;;;;;;;;;;;;;;;;;;5086342;28;19924;-81
2022/08/09 02:13:57;;;;;;;;;;;;;;;;;;5101897;28;19924;-81
2022/08/09 02:16:24;;;;;;;;;;;;;;;;;;5106536;28;19924;-80
2022/08/09 02:18:52;;;;;;;;;;;;;;;;;;5107766;28;19971;-78
2022/08/09 02:21:20;;;;;;;;;;;;;;;;;;5094435;28;19925;-80
2022/08/09 02:23:48;;;;;;;;;;;;;;;;;;5105506;28;19924;-79
2022/08/09 02:26:15;;;;;;;;;;;;;;;;;;5107956;28;19924;-79
2022/08/09 02:28:45;;;;;;;;;;;;;;;;;;5106479;28;19924;-80
2022/08/09 02:31:15;;;;;;;;;;;;;;;;;;5109570;28;19924;-79
2022/08/09 02:33:44;;;;;;;;;;;;;;;;;;5102043;28;19924;-80
2022/08/09 02:36:14;;;;;;;;;;;;;;;;;;5109407;28;19931;-79
2022/08/09 02:38:44;;;;;;;;;;;;;;;;;;5107906;28;19924;-80
2022/08/09 02:41:12;;;;;;;;;;;;;;;;;;5106625;28;19924;-80
2022/08/09 02:43:40;;;;;;;;;;;;;;;;;;5103951;28;20109;-79
2022/08/09 02:46:09;;;;;;;;;;;;;;;;;;5104533;28;19996;-81
2022/08/09 02:48:36;;;;;;;;;;;;;;;;;;5102705;28;19924;-80
2022/08/09 02:51:03;;;;;;;;;;;;;;;;;;5095679;28;19931;-80
2022/08/09 02:53:33;;;;;;;;;;;;;;;;;;5104480;28;19947;-79
2022/08/09 02:56:00;;;;;;;;;;;;;;;;;;5106148;28;19924;-79
2022/08/09 02:58:29;;;;;;;;;;;;;;;;;;5091729;28;19924;-80
2022/08/09 03:00:56;;;;;;;;;;;;;;;;;;5092683;28;19952;-81
2022/08/09 03:03:23;;;;;;;;;;;;;;;;;;5109890;28;19924;-80
2022/08/09 03:05:50;;;;;;;;;;;;;;;;;;5105342;28;19959;-80
2022/08/09 03:08:17;;;;;;;;;;;;;;;;;;5090078;28;20298;-79
2022/08/09 03:10:46;;;;;;;;;;;;;;;;;;5107225;28;19978;-80
2022/08/09 03:13:12;;;;;;;;;;;;;;;;;;5105730;28;19924;-80
2022/08/09 03:15:39;;;;;;;;;;;;;;;;;;5104309;28;19924;-79
2022/08/09 03:18:06;;;;;;;;;;;;;;;;;;5101067;28;20107;-80
2022/08/09 03:20:33;;;;;;;;;;;;;;;;;;5091156;28;19966;-80
2022/08/09 03:23:00;;;;;;;;;;;;;;;;;;5093367;28;19925;-79
2022/08/09 03:25:27;;;;;;;;;;;;;;;;;;5083448;28;19924;-80
2022/08/09 03:27:55;;;;;;;;;;;;;;;;;;5098945;28;19986;-80
2022/08/09 03:30:22;;;;;;;;;;;;;;;;;;5094972;28;19928;-82
2022/08/09 03:32:48;;;;;;;;;;;;;;;;;;5084875;28;19983;-79
2022/08/09 03:35:15;;;;;;;;;;;;;;;;;;5098189;28;19978;-80
2022/08/09 03:37:42;;;;;;;;;;;;;;;;;;5096748;28;19928;-79
2022/08/09 03:40:09;;;;;;;;;;;;;;;;;;5097033;28;19955;-79
2022/08/09 03:42:35;;;;;;;;;;;;;;;;;;5092903;28;19995;-79
2022/08/09 03:45:04;;;;;;;;;;;;;;;;;;5108549;22;20007;-66
2022/08/09 03:47:30;;;;;;;;;;;;;;;;;;5092509;28;19924;-65
2022/08/09 03:49:57;;;;;;;;;;;;;;;;;;5092287;28;19924;-66
2022/08/09 03:52:25;;;;;;;;;;;;;;;;;;5092481;28;19947;-65
2022/08/09 03:54:52;;;;;;;;;;;;;;;;;;5092335;28;19924;-64
2022/08/09 03:57:19;;;;;;;;;;;;;;;;;;5091913;28;19981;-65
2022/08/09 03:59:47;;;;;;;;;;;;;;;;;;5092195;28;19924;-65
2022/08/09 04:02:15;;;;;;;;;;;;;;;;;;5092067;28;20393;-65
2022/08/09 04:04:41;;;;;;;;;;;;;;;;;;5092127;28;19924;-65
2022/08/09 04:07:08;;;;;;;;;;;;;;;;;;5092311;28;19924;-65
2022/08/09 04:09:34;;;;;;;;;;;;;;;;;;5091972;28;20330;-65
2022/08/09 04:12:14;;;;;;;;;;;;;;;;;;5092095;28;19969;-66
2022/08/09 04:14:41;;;;;;;;;;;;;;;;;;5091965;28;19958;-65
2022/08/09 04:17:08;;;;;;;;;;;;;;;;;;5092190;28;19928;-65
2022/08/09 04:19:36;;;;;;;;;;;;;;;;;;5092010;28;19924;-65
2022/08/09 04:22:03;;;;;;;;;;;;;;;;;;5091739;28;19931;-65
2022/08/09 04:24:30;;;;;;;;;;;;;;;;;;5092314;28;19927;-65
2022/08/09 04:26:57;;;;;;;;;;;;;;;;;;5091648;28;19958;-65
2022/08/09 04:29:23;;;;;;;;;;;;;;;;;;5091857;28;19928;-65
2022/08/09 04:31:52;;;;;;;;;;;;;;;;;;5091962;28;20022;-65
2022/08/09 04:34:18;;;;;;;;;;;;;;;;;;5091896;28;19924;-66
2022/08/09 04:36:46;;;;;;;;;;;;;;;;;;5091603;28;19924;-66
2022/08/09 04:39:13;;;;;;;;;;;;;;;;;;5092068;28;20315;-66
2022/08/09 04:41:39;;;;;;;;;;;;;;;;;;5091980;28;19974;-66
2022/08/09 04:44:10;;;;;;;;;;;;;;;;;;5091556;28;19928;-65
2022/08/09 04:46:38;;;;;;;;;;;;;;;;;;5091872;28;19931;-65
2022/08/09 04:49:04;;;;;;;;;;;;;;;;;;5091758;28;19943;-65
2022/08/09 04:51:31;;;;;;;;;;;;;;;;;;5091797;28;19924;-65
2022/08/09 04:53:59;;;;;;;;;;;;;;;;;;5082495;28;20323;-65
2022/08/09 04:56:25;;;;;;;;;;;;;;;;;;5095794;28;19935;-65
2022/08/09 04:58:52;;;;;;;;;;;;;;;;;;5095694;28;20014;-66
2022/08/09 05:01:18;;;;;;;;;;;;;;;;;;5095414;28;19924;-66
2022/08/09 05:03:45;;;;;;;;;;;;;;;;;;5095987;28;19932;-66
2022/08/09 05:06:12;;;;;;;;;;;;;;;;;;5096270;28;20330;-66
2022/08/09 05:08:38;;;;;;;;;;;;;;;;;;5095452;28;19924;-66
2022/08/09 05:11:07;;;;;;;;;;;;;;;;;;5094904;28;19928;-66
2022/08/09 05:13:33;;;;;;;;;;;;;;;;;;5096097;28;20334;-66
2022/08/09 05:16:00;;;;;;;;;;;;;;;;;;5095338;28;20388;-66
2022/08/09 05:18:28;;;;;;;;;;;;;;;;;;5095369;28;20579;-66
2022/08/09 05:20:55;;;;;;;;;;;;;;;;;;5095065;28;20367;-66
2022/08/09 05:23:21;;;;;;;;;;;;;;;;;;5095007;28;19959;-66
2022/08/09 05:25:48;;;;;;;;;;;;;;;;;;5095165;28;19928;-66
2022/08/09 05:28:16;;;;;;;;;;;;;;;;;;5095280;28;19928;-66
2022/08/09 05:30:43;;;;;;;;;;;;;;;;;;5094758;28;20363;-67
2022/08/09 05:33:10;;;;;;;;;;;;;;;;;;5095080;28;19924;-66
2022/08/09 05:35:36;;;;;;;;;;;;;;;;;;5095334;28;19924;-65
2022/08/09 05:38:03;;;;;;;;;;;;;;;;;;5094663;28;19932;-66
2022/08/09 05:40:30;;;;;;;;;;;;;;;;;;5094694;28;19931;-66
2022/08/09 05:42:56;;;;;;;;;;;;;;;;;;5095017;28;19924;-66
2022/08/09 05:45:24;;;;;;;;;;;;;;;;;;5095677;28;19924;-66
2022/08/09 05:47:51;;;;;;;;;;;;;;;;;;5085806;28;19924;-66
2022/08/09 05:50:18;;;;;;;;;;;;;;;;;;5094506;28;19932;-66
2022/08/09 05:52:44;;;;;;;;;;;;;;;;;;5094721;28;20026;-66
2022/08/09 05:55:11;;;;;;;;;;;;;;;;;;5094655;28;19924;-65
2022/08/09 05:57:38;;;;;;;;;;;;;;;;;;5094611;28;19963;-66
2022/08/09 06:00:06;;;;;;;;;;;;;;;;;;5094052;28;19924;-65
2022/08/09 06:02:34;;;;;;;;;;;;;;;;;;5093415;28;19969;-66
2022/08/09 06:05:01;;;;;;;;;;;;;;;;;;5094249;28;19957;-66
2022/08/09 06:07:28;;;;;;;;;;;;;;;;;;5094741;28;19931;-66
2022/08/09 06:09:54;;;;;;;;;;;;;;;;;;5095117;28;19928;-66
2022/08/09 06:12:21;;;;;;;;;;;;;;;;;;5094709;28;19950;-66
2022/08/09 06:14:47;;;;;;;;;;;;;;;;;;5095126;28;20403;-66
2022/08/09 06:17:14;;;;;;;;;;;;;;;;;;5094281;28;20388;-66
2022/08/09 06:19:42;;;;;;;;;;;;;;;;;;5094055;28;19935;-66
2022/08/09 06:22:08;;;;;;;;;;;;;;;;;;5094112;28;19970;-65
2022/08/09 06:24:35;;;;;;;;;;;;;;;;;;5094576;28;19924;-65
2022/08/09 06:27:02;;;;;;;;;;;;;;;;;;5094057;28;19928;-65
2022/08/09 06:29:28;;;;;;;;;;;;;;;;;;5093370;28;20401;-65
2022/08/09 06:31:55;;;;;;;;;;;;;;;;;;5093467;28;19924;-66
2022/08/09 06:34:22;;;;;;;;;;;;;;;;;;5092854;28;19928;-66
2022/08/09 06:36:50;;;;;;;;;;;;;;;;;;5093719;28;20034;-66
2022/08/09 06:39:16;;;;;;;;;;;;;;;;;;5093980;28;19931;-66
2022/08/09 06:41:43;;;;;;;;;;;;;;;;;;5094498;28;19924;-66
2022/08/09 06:44:13;;;;;;;;;;;;;;;;;;5093693;28;19931;-66
2022/08/09 06:46:39;;;;;;;;;;;;;;;;;;5094768;28;20354;-65
2022/08/09 06:49:06;;;;;;;;;;;;;;;;;;5093215;28;20296;-65
2022/08/09 06:51:34;;;;;;;;;;;;;;;;;;5094002;28;19931;-65
2022/08/09 06:54:02;;;;;;;;;;;;;;;;;;5093834;28;20488;-65
2022/08/09 06:56:28;;;;;;;;;;;;;;;;;;5093681;28;20381;-65
2022/08/09 06:58:55;;;;;;;;;;;;;;;;;;5093846;28;19924;-66
2022/08/09 07:01:21;;;;;;;;;;;;;;;;;;5093629;28;19928;-66
2022/08/09 07:03:48;;;;;;;;;;;;;;;;;;5094310;28;20269;-66
2022/08/09 07:06:15;;;;;;;;;;;;;;;;;;5093669;28;20573;-66
2022/08/09 07:08:41;;;;;;;;;;;;;;;;;;5093108;28;19928;-66
2022/08/09 07:11:09;;;;;;;;;;;;;;;;;;5093249;28;19978;-66
2022/08/09 07:13:36;;;;;;;;;;;;;;;;;;5093431;28;19928;-66
2022/08/09 07:16:03;;;;;;;;;;;;;;;;;;5088967;28;19925;-66
2022/08/09 07:18:29;;;;;;;;;;;;;;;;;;5093629;28;19978;-65
2022/08/09 07:20:56;;;;;;;;;;;;;;;;;;5083574;28;19924;-65
2022/08/09 07:23:23;;;;;;;;;;;;;;;;;;5091679;28;19974;-66
2022/08/09 07:25:50;;;;;;;;;;;;;;;;;;5091149;28;19947;-66
2022/08/09 07:28:18;;;;;;;;;;;;;;;;;;5091481;28;20014;-65
2022/08/09 07:30:44;;;;;;;;;;;;;;;;;;5091345;28;19934;-66
2022/08/09 07:33:11;;;;;;;;;;;;;;;;;;5089339;28;19934;-67
2022/08/09 07:35:38;;;;;;;;;;;;;;;;;;5090113;28;19928;-66
2022/08/09 07:38:04;;;;;;;;;;;;;;;;;;5091508;28;19923;-66
2022/08/09 07:40:31;;;;;;;;;;;;;;;;;;5090738;28;19935;-65
2022/08/09 07:42:59;;;;;;;;;;;;;;;;;;5091720;28;19977;-66
2022/08/09 07:45:28;;;;;;;;;;;;;;;;;;5090453;28;19931;-66
2022/08/09 07:47:55;;;;;;;;;;;;;;;;;;5091633;28;19924;-66
2022/08/09 07:50:22;;;;;;;;;;;;;;;;;;5090774;28;20385;-66
2022/08/09 07:52:49;;;;;;;;;;;;;;;;;;5091713;28;20292;-66
2022/08/09 07:55:16;;;;;;;;;;;;;;;;;;5090922;28;19930;-66
2022/08/09 07:57:46;;;;;;;;;;;;;;;;;;5090555;28;19928;-67
2022/08/09 08:00:13;;;;;;;;;;;;;;;;;;5089242;28;19939;-66
2022/08/09 08:02:41;;;;;;;;;;;;;;;;;;5089532;28;19957;-66
2022/08/09 08:05:08;;;;;;;;;;;;;;;;;;5087624;28;19930;-66
2022/08/09 08:07:35;;;;;;;;;;;;;;;;;;5091022;28;19924;-67
2022/08/09 08:10:01;;;;;;;;;;;;;;;;;;5090429;28;19935;-67
2022/08/09 08:12:28;;;;;;;;;;;;;;;;;;5090905;28;19928;-67
2022/08/09 08:14:55;;;;;;;;;;;;;;;;;;5089810;28;19924;-67
2022/08/09 08:17:21;;;;;;;;;;;;;;;;;;5090717;28;20355;-67
2022/08/09 08:19:49;;;;;;;;;;;;;;;;;;5089784;28;19924;-67
2022/08/09 08:22:16;;;;;;;;;;;;;;;;;;5090874;28;19924;-66
2022/08/09 08:24:42;;;;;;;;;;;;;;;;;;5090111;28;19924;-67
2022/08/09 08:27:09;;;;;;;;;;;;;;;;;;5093611;28;19924;-66
2022/08/09 08:29:36;;;;;;;;;;;;;;;;;;5094433;28;19928;-67
2022/08/09 08:32:02;;;;;;;;;;;;;;;;;;5094589;28;19932;-67
2022/08/09 08:34:29;;;;;;;;;;;;;;;;;;5095428;28;19927;-66
2022/08/09 08:36:57;;;;;;;;;;;;;;;;;;5095180;28;19931;-67
2022/08/09 08:39:24;;;;;;;;;;;;;;;;;;5094700;28;19936;-67
2022/08/09 08:41:50;;;;;;;;;;;;;;;;;;5095234;28;19924;-66
2022/08/09 08:44:18;;;;;;;;;;;;;;;;;;5095239;28;19969;-66
2022/08/09 08:46:45;;;;;;;;;;;;;;;;;;5095085;28;19924;-67
2022/08/09 08:49:13;;;;;;;;;;;;;;;;;;5094699;28;19935;-66
2022/08/09 08:51:40;;;;;;;;;;;;;;;;;;5094295;28;20579;-66
2022/08/09 08:54:08;;;;;;;;;;;;;;;;;;5094095;28;19951;-66
2022/08/09 08:56:35;;;;;;;;;;;;;;;;;;5094336;28;19924;-66
2022/08/09 08:59:03;;;;;;;;;;;;;;;;;;5094484;28;20019;-67
2022/08/09 09:01:30;;;;;;;;;;;;;;;;;;5095159;28;20292;-66
2022/08/09 09:03:56;;;;;;;;;;;;;;;;;;5094072;28;19924;-66
2022/08/09 09:06:23;;;;;;;;;;;;;;;;;;5094555;28;19924;-66
2022/08/09 09:08:51;;;;;;;;;;;;;;;;;;5095249;28;19956;-67
2022/08/09 09:11:20;;;;;;;;;;;;;;;;;;5094374;28;20506;-67
2022/08/09 09:13:47;;;;;;;;;;;;;;;;;;5094209;28;19928;-66
2022/08/09 09:16:14;;;;;;;;;;;;;;;;;;5093868;28;19924;-66
2022/08/09 09:18:41;;;;;;;;;;;;;;;;;;5094664;28;19924;-66
2022/08/09 09:21:08;;;;;;;;;;;;;;;;;;5094054;28;20057;-65
2022/08/09 09:23:40;;;;;;;;;;;;;;;;;;5093736;28;19951;-66
2022/08/09 09:26:06;;;;;;;;;;;;;;;;;;5093897;28;19972;-66
2022/08/09 09:28:35;;;;;;;;;;;;;;;;;;5094437;28;19924;-66
2022/08/09 09:31:02;;;;;;;;;;;;;;;;;;5093670;28;19936;-66
2022/08/09 09:33:31;;;;;;;;;;;;;;;;;;5094702;28;19924;-66
2022/08/09 09:35:59;;;;;;;;;;;;;;;;;;5094095;28;19931;-66
2022/08/09 09:38:39;;;;;;;;;;;;;;;;;;5093426;28;20374;-66
2022/08/09 09:41:05;;;;;;;;;;;;;;;;;;5093980;28;19966;-67
2022/08/09 09:43:32;;;;;;;;;;;;;;;;;;5093432;28;20328;-67
2022/08/09 09:46:01;;;;;;;;;;;;;;;;;;5093810;28;20262;-68
2022/08/09 09:48:29;;;;;;;;;;;;;;;;;;5115126;22;20054;-78
2022/08/09 09:50:56;;;;;;;;;;;;;;;;;;5111755;28;19924;-78
2022/08/09 09:53:23;;;;;;;;;;;;;;;;;;5115098;28;19969;-78
2022/08/09 09:55:50;;;;;;;;;;;;;;;;;;5115269;28;20339;-78
2022/08/09 09:58:17;;;;;;;;;;;;;;;;;;5121508;28;19911;-78
2022/08/09 10:00:44;;;;;;;;;;;;;;;;;;5137854;28;19922;-78
2022/08/09 10:03:12;;;;;;;;;;;;;;;;;;5131142;28;19928;-78
2022/08/09 10:05:56;;;;;;;;;;;;;;;;;;5122211;28;19924;-82
2022/08/09 10:08:22;;;;;;;;;;;;;;;;;;5116708;28;19955;-82
2022/08/09 10:10:49;;;;;;;;;;;;;;;;;;5117158;28;20022;-85
2022/08/09 10:13:16;;;;;;;;;;;;;;;;;;5118039;28;19923;-86
2022/08/09 10:15:49;;;;;;;;;;;;;;;;;;5117420;28;19928;-86
2022/08/09 10:18:17;;;;;;;;;;;;;;;;;;5104381;28;19983;-84
2022/08/09 10:20:44;;;;;;;;;;;;;;;;;;5117090;28;20015;-86
2022/08/09 10:23:15;;;;;;;;;;;;;;;;;;5116776;28;19963;-85
2022/08/09 10:25:43;;;;;;;;;;;;;;;;;;5117457;28;20595;-84
2022/08/09 10:28:10;;;;;;;;;;;;;;;;;;5116897;28;20003;-86
2022/08/09 10:30:37;;;;;;;;;;;;;;;;;;5115509;28;19977;-85
2022/08/09 10:33:04;;;;;;;;;;;;;;;;;;5117205;28;19923;-84
2022/08/09 10:35:32;;;;;;;;;;;;;;;;;;5117563;28;20414;-86
2022/08/09 10:37:59;;;;;;;;;;;;;;;;;;5118328;28;19966;-83
2022/08/09 10:40:26;;;;;;;;;;;;;;;;;;5117214;28;19930;-83
2022/08/09 10:42:52;;;;;;;;;;;;;;;;;;5116709;28;19963;-86
2022/08/09 10:45:20;;;;;;;;;;;;;;;;;;5116643;28;19949;-85
2022/08/09 10:47:58;;;;;;;;;;;;;;;;;;5117538;28;19974;-83
2022/08/09 10:50:27;;;;;;;;;;;;;;;;;;5119445;28;19924;-81
2022/08/09 10:53:26;;;;;;;;;;;;;;;;;;5116080;28;20403;-84
2022/08/09 10:56:14;;;;;;;;;;;;;;;;;;5119721;28;19988;-82
2022/08/09 10:58:40;;;;;;;;;;;;;;;;;;5119052;28;19930;-84
2022/08/09 11:01:30;;;;;;;;;;;;;;;;;;5120703;28;19924;-85
2022/08/09 11:04:13;;;;;;;;;;;;;;;;;;5130389;28;19973;-86
2022/08/09 11:06:41;;;;;;;;;;;;;;;;;;5115439;28;19965;-85
2022/08/09 11:09:09;;;;;;;;;;;;;;;;;;5117347;28;19945;-85
2022/08/09 11:12:03;;;;;;;;;;;;;;;;;;5171724;27;20006;-67
2022/08/09 11:14:34;;;;;;;;;;;;;;;;;;5149196;27;20348;-68
2022/08/09 11:17:01;;;;;;;;;;;;;;;;;;5142326;27;20281;-68
2022/08/09 11:19:46;;;;;;;;;;;;;;;;;;5130061;27;19931;-68
2022/08/09 11:22:12;;;;;;;;;;;;;;;;;;5140806;27;19923;-68
2022/08/09 11:24:57;;;;;;;;;;;;;;;;;;5137458;27;20006;-68
2022/08/09 11:27:31;;;;;;;;;;;;;;;;;;5145783;27;19976;-68
2022/08/09 11:29:59;;;;;;;;;;;;;;;;;;5142470;27;19945;-68
2022/08/09 11:32:42;;;;;;;;;;;;;;;;;;5145290;27;20014;-69
2022/08/09 11:35:13;;;;;;;;;;;;;;;;;;5138898;27;20292;-68
2022/08/09 11:37:41;;;;;;;;;;;;;;;;;;5149816;27;19962;-69
2022/08/09 11:40:08;;;;;;;;;;;;;;;;;;5138798;27;20018;-69
2022/08/09 11:42:39;;;;;;;;;;;;;;;;;;5137559;27;19933;-69
2022/08/09 11:45:17;;;;;;;;;;;;;;;;;;5140448;27;20260;-69
2022/08/09 11:47:44;;;;;;;;;;;;;;;;;;5129807;28;19923;-70
2022/08/09 11:50:12;;;;;;;;;;;;;;;;;;5130580;27;19935;-69
2022/08/09 11:52:53;;;;;;;;;;;;;;;;;;5150071;27;19924;-68
2022/08/09 11:55:30;;;;;;;;;;;;;;;;;;5130810;27;19949;-66
2022/08/09 11:57:58;;;;;;;;;;;;;;;;;;5138182;27;20299;-67
2022/08/09 12:00:27;;;;;;;;;;;;;;;;;;5135916;27;19924;-66
2022/08/09 12:02:54;;;;;;;;;;;;;;;;;;5140630;27;19968;-66
2022/08/09 12:05:22;;;;;;;;;;;;;;;;;;5149545;27;20268;-66
2022/08/09 12:07:49;;;;;;;;;;;;;;;;;;5139449;27;19923;-66
2022/08/09 12:10:15;;;;;;;;;;;;;;;;;;5128817;28;20296;-66
2022/08/09 12:12:46;;;;;;;;;;;;;;;;;;5128874;28;20380;-67
2022/08/09 12:15:20;;;;;;;;;;;;;;;;;;5128648;27;20314;-66
2022/08/09 12:17:49;;;;;;;;;;;;;;;;;;5128358;28;19999;-66
2022/08/09 12:20:17;;;;;;;;;;;;;;;;;;5128972;27;20308;-66
2022/08/09 12:22:44;;;;;;;;;;;;;;;;;;5117542;28;19981;-67
2022/08/09 12:25:11;;;;;;;;;;;;;;;;;;5115004;28;20441;-67
2022/08/09 12:27:38;;;;;;;;;;;;;;;;;;5115062;28;19928;-67
2022/08/09 12:30:06;;;;;;;;;;;;;;;;;;5115143;28;20384;-66
2022/08/09 12:32:32;;;;;;;;;;;;;;;;;;5115289;27;20438;-67
2022/08/09 12:35:01;;;;;;;;;;;;;;;;;;5115015;28;19928;-67
2022/08/09 12:37:31;;;;;;;;;;;;;;;;;;5120727;27;19935;-67
2022/08/09 12:39:59;;;;;;;;;;;;;;;;;;5118071;27;20321;-67
2022/08/09 12:42:26;;;;;;;;;;;;;;;;;;5114368;27;19985;-67
2022/08/09 12:44:52;;;;;;;;;;;;;;;;;;5131437;27;20432;-67
2022/08/09 12:47:19;;;;;;;;;;;;;;;;;;5117270;27;19954;-67
2022/08/09 12:50:15;;;;;;;;;;;;;;;;;;5119210;27;19971;-67
2022/08/09 12:52:41;;;;;;;;;;;;;;;;;;5118044;27;19930;-67
2022/08/09 12:55:08;;;;;;;;;;;;;;;;;;5134814;27;19924;-67
2022/08/09 12:57:36;;;;;;;;;;;;;;;;;;5134391;27;20029;-67
2022/08/09 13:00:10;;;;;;;;;;;;;;;;;;5133428;27;19932;-67
2022/08/09 13:02:47;;;;;;;;;;;;;;;;;;5126189;27;19930;-66
2022/08/09 13:05:13;;;;;;;;;;;;;;;;;;5135038;27;19923;-67
2022/08/09 13:07:41;;;;;;;;;;;;;;;;;;5134927;27;19923;-67
2022/08/09 13:10:08;;;;;;;;;;;;;;;;;;5133774;27;19923;-70
2022/08/09 13:12:45;;;;;;;;;;;;;;;;;;5115567;28;20249;-66
2022/08/09 13:15:13;;;;;;;;;;;;;;;;;;5114979;28;20201;-67
2022/08/09 13:17:39;;;;;;;;;;;;;;;;;;5118407;27;19923;-68
2022/08/09 13:20:07;;;;;;;;;;;;;;;;;;5114430;27;20296;-68
2022/08/09 13:22:33;;;;;;;;;;;;;;;;;;5133445;27;20026;-68
2022/08/09 13:25:01;;;;;;;;;;;;;;;;;;5134382;27;20433;-68
2022/08/09 13:27:29;;;;;;;;;;;;;;;;;;5134532;27;19923;-67
2022/08/09 13:29:57;;;;;;;;;;;;;;;;;;5134352;27;20358;-68
2022/08/09 13:32:23;;;;;;;;;;;;;;;;;;5116653;27;19924;-67
2022/08/09 13:34:50;;;;;;;;;;;;;;;;;;5113256;28;20312;-68
2022/08/09 13:37:17;;;;;;;;;;;;;;;;;;5118555;27;19928;-67
2022/08/09 13:39:44;;;;;;;;;;;;;;;;;;5114099;28;20407;-68
2022/08/09 13:42:13;;;;;;;;;;;;;;;;;;5114894;28;20303;-68
2022/08/09 13:44:40;;;;;;;;;;;;;;;;;;5113909;27;19924;-68
2022/08/09 13:47:08;;;;;;;;;;;;;;;;;;5126630;27;19928;-67
2022/08/09 13:49:35;;;;;;;;;;;;;;;;;;5134598;27;19949;-68
2022/08/09 13:52:01;;;;;;;;;;;;;;;;;;5134188;27;20319;-67
2022/08/09 13:54:28;;;;;;;;;;;;;;;;;;5133892;27;20101;-68
2022/08/09 13:56:54;;;;;;;;;;;;;;;;;;5123919;27;20460;-68
2022/08/09 13:59:22;;;;;;;;;;;;;;;;;;5130321;27;19923;-68
2022/08/09 14:01:49;;;;;;;;;;;;;;;;;;5126770;27;19927;-68
2022/08/09 14:04:16;;;;;;;;;;;;;;;;;;5133330;27;19927;-68
2022/08/09 14:06:42;;;;;;;;;;;;;;;;;;5131913;27;19923;-68
2022/08/09 14:09:09;;;;;;;;;;;;;;;;;;5132867;27;19927;-68
2022/08/09 14:11:36;;;;;;;;;;;;;;;;;;5127026;27;19967;-68
2022/08/09 14:14:02;;;;;;;;;;;;;;;;;;5113117;28;19931;-68
2022/08/09 14:16:30;;;;;;;;;;;;;;;;;;5116654;27;19923;-68
2022/08/09 14:18:57;;;;;;;;;;;;;;;;;;5120343;27;19924;-68
2022/08/09 14:21:24;;;;;;;;;;;;;;;;;;5113582;27;20019;-68
2022/08/09 14:23:51;;;;;;;;;;;;;;;;;;5120062;27;19924;-68
2022/08/09 14:26:19;;;;;;;;;;;;;;;;;;5131710;27;19927;-67
2022/08/09 14:28:46;;;;;;;;;;;;;;;;;;5122067;27;20422;-68
2022/08/09 14:31:12;;;;;;;;;;;;;;;;;;5111606;27;19938;-68
2022/08/09 14:33:40;;;;;;;;;;;;;;;;;;5132795;27;20394;-67
2022/08/09 14:36:07;;;;;;;;;;;;;;;;;;5132396;27;19927;-68
2022/08/09 14:38:33;;;;;;;;;;;;;;;;;;5129202;27;19924;-68
2022/08/09 14:41:00;;;;;;;;;;;;;;;;;;5121296;27;19928;-68
2022/08/09 14:43:27;;;;;;;;;;;;;;;;;;5111636;28;19928;-68
2022/08/09 14:45:53;;;;;;;;;;;;;;;;;;5119703;27;19924;-68
2022/08/09 14:48:20;;;;;;;;;;;;;;;;;;5132612;27;19931;-68
2022/08/09 14:50:48;;;;;;;;;;;;;;;;;;5131782;27;19934;-68
2022/08/09 14:53:15;;;;;;;;;;;;;;;;;;5118385;27;19931;-68
2022/08/09 14:55:41;;;;;;;;;;;;;;;;;;5112234;27;19924;-68
2022/08/09 14:58:08;;;;;;;;;;;;;;;;;;5118737;27;19924;-68
2022/08/09 15:00:35;;;;;;;;;;;;;;;;;;5111745;28;20000;-68
2022/08/09 15:03:02;;;;;;;;;;;;;;;;;;5112201;28;20023;-68
2022/08/09 15:05:29;;;;;;;;;;;;;;;;;;5111627;28;19923;-68
2022/08/09 15:07:57;;;;;;;;;;;;;;;;;;5114609;28;19927;-68
2022/08/09 15:10:23;;;;;;;;;;;;;;;;;;5112180;28;19924;-67
2022/08/09 15:12:50;;;;;;;;;;;;;;;;;;5114835;28;19942;-68
2022/08/09 15:15:16;;;;;;;;;;;;;;;;;;5131657;28;19942;-68
2022/08/09 15:17:43;;;;;;;;;;;;;;;;;;5132174;28;19988;-68
2022/08/09 15:20:10;;;;;;;;;;;;;;;;;;5131167;27;20277;-68
2022/08/09 15:22:38;;;;;;;;;;;;;;;;;;5132788;28;20013;-68
2022/08/09 15:25:06;;;;;;;;;;;;;;;;;;5118712;28;19968;-69
2022/08/09 15:27:33;;;;;;;;;;;;;;;;;;5111790;28;20404;-68
2022/08/09 15:30:00;;;;;;;;;;;;;;;;;;5118722;28;19928;-68
2022/08/09 15:32:26;;;;;;;;;;;;;;;;;;5132893;28;20367;-68
2022/08/09 15:34:53;;;;;;;;;;;;;;;;;;5121990;28;19950;-68
2022/08/09 15:40:09;;;;;;;;;;;;;;;;;;5116747;27;19950;-68
2022/08/09 15:42:36;;;;;;;;;;;;;;;;;;5129979;27;19931;-68
2022/08/09 15:45:03;;;;;;;;;;;;;;;;;;5119013;27;19976;-68
2022/08/09 15:47:30;;;;;;;;;;;;;;;;;;5111556;28;19936;-68
2022/08/09 15:49:57;;;;;;;;;;;;;;;;;;5114802;28;20400;-68
2022/08/09 15:52:23;;;;;;;;;;;;;;;;;;5113943;27;19935;-68
2022/08/09 15:54:50;;;;;;;;;;;;;;;;;;5125841;28;19923;-67
2022/08/09 15:57:19;;;;;;;;;;;;;;;;;;5113904;28;20308;-67
2022/08/09 15:59:45;;;;;;;;;;;;;;;;;;5115402;28;19923;-67
2022/08/09 16:02:12;;;;;;;;;;;;;;;;;;5129356;22;19935;-69
2022/08/09 16:04:38;;;;;;;;;;;;;;;;;;5051872;28;19928;-72
2022/08/09 16:07:06;;;;;;;;;;;;;;;;;;5053991;28;19925;-69
2022/08/09 16:09:33;;;;;;;;;;;;;;;;;;5053448;28;20373;-68
2022/08/09 16:11:59;;;;;;;;;;;;;;;;;;5053737;28;19986;-68
2022/08/09 16:14:27;;;;;;;;;;;;;;;;;;5039332;28;19925;-69
2022/08/09 16:16:54;;;;;;;;;;;;;;;;;;5053328;28;19932;-68
2022/08/09 16:19:20;;;;;;;;;;;;;;;;;;5049478;28;19929;-68
2022/08/09 16:21:49;;;;;;;;;;;;;;;;;;5053849;28;20492;-68
2022/08/09 16:24:16;;;;;;;;;;;;;;;;;;5045969;28;19978;-68
2022/08/09 16:26:43;;;;;;;;;;;;;;;;;;5073205;28;19925;-68
2022/08/09 16:29:10;;;;;;;;;;;;;;;;;;5057053;28;20429;-66
2022/08/09 16:31:39;;;;;;;;;;;;;;;;;;5044960;28;19925;-68
2022/08/09 16:34:05;;;;;;;;;;;;;;;;;;5046564;28;19931;-68
2022/08/09 16:36:32;;;;;;;;;;;;;;;;;;5046141;28;19936;-67
2022/08/09 16:38:59;;;;;;;;;;;;;;;;;;5033811;28;19936;-69
2022/08/09 16:41:25;;;;;;;;;;;;;;;;;;5033276;28;19925;-69
2022/08/09 16:43:52;;;;;;;;;;;;;;;;;;5060642;28;19929;-69
2022/08/09 16:46:19;;;;;;;;;;;;;;;;;;5052948;28;20401;-68
2022/08/09 16:48:47;;;;;;;;;;;;;;;;;;5044791;28;19925;-68
2022/08/09 16:51:14;;;;;;;;;;;;;;;;;;5032703;28;19932;-68
2022/08/09 16:53:40;;;;;;;;;;;;;;;;;;5043989;28;19932;-67
2022/08/09 16:56:07;;;;;;;;;;;;;;;;;;5050661;28;19925;-68